createdAt,value
2023-05-14T00:01:39.150Z,16.25
2023-05-14T00:04:26.037Z,16.24
2023-05-14T00:07:12.949Z,16.25
2023-05-14T00:10:00.020Z,16.22
2023-05-14T00:12:46.893Z,16.22
2023-05-14T00:15:34.507Z,16.19
2023-05-14T00:18:21.504Z,16.19
2023-05-14T00:21:08.351Z,16.21
2023-05-14T00:23:55.244Z,16.19
2023-05-14T00:26:42.071Z,16.15
2023-05-14T00:29:28.850Z,16.11
2023-05-14T00:32:15.766Z,16.06
2023-05-14T00:35:04.337Z,16.01
2023-05-14T00:37:51.210Z,15.98
2023-05-14T00:40:38.108Z,15.96
2023-05-14T00:43:25.941Z,15.94
2023-05-14T00:46:12.881Z,15.96
2023-05-14T00:48:59.842Z,15.98
2023-05-14T00:51:47.100Z,15.97
2023-05-14T00:54:34.857Z,15.98
2023-05-14T00:57:22.071Z,15.98
2023-05-14T01:00:09.384Z,15.97
2023-05-14T01:02:56.319Z,15.95
2023-05-14T01:05:46.326Z,15.93
2023-05-14T01:09:10.339Z,15.91
2023-05-14T01:12:13.208Z,15.89
2023-05-14T01:15:12.533Z,15.86
2023-05-14T01:18:03.957Z,15.86
2023-05-14T01:20:52.626Z,15.85
2023-05-14T01:23:39.478Z,15.84
2023-05-14T01:26:26.284Z,15.84
2023-05-14T01:29:23.322Z,15.83
2023-05-14T01:32:11.024Z,15.83
2023-05-14T01:34:58.717Z,15.81
2023-05-14T01:37:45.985Z,15.80
2023-05-14T01:40:34.024Z,15.80
2023-05-14T01:43:21.058Z,15.78
2023-05-14T01:46:08.010Z,15.79
2023-05-14T01:48:54.942Z,15.77
2023-05-14T01:51:41.739Z,15.77
2023-05-14T01:54:28.565Z,15.73
2023-05-14T01:57:15.537Z,15.70
2023-05-14T02:00:02.368Z,15.68
2023-05-14T02:02:49.197Z,15.67
2023-05-14T02:05:36.019Z,15.63
2023-05-14T02:08:22.868Z,15.62
2023-05-14T02:11:09.859Z,15.63
2023-05-14T02:13:56.701Z,15.64
2023-05-14T02:16:43.570Z,15.64
2023-05-14T02:19:30.707Z,15.66
2023-05-14T02:22:17.602Z,15.64
2023-05-14T02:25:04.686Z,15.62
2023-05-14T02:27:51.496Z,15.57
2023-05-14T02:30:38.416Z,15.56
2023-05-14T02:33:25.305Z,15.55
2023-05-14T02:36:12.197Z,15.54
2023-05-14T02:38:59.611Z,15.56
2023-05-14T02:41:46.424Z,15.56
2023-05-14T02:44:33.319Z,15.54
2023-05-14T02:47:20.241Z,15.55
2023-05-14T02:50:07.690Z,15.54
2023-05-14T02:52:54.551Z,15.54
2023-05-14T02:55:41.404Z,15.51
2023-05-14T02:58:28.621Z,15.48
2023-05-14T03:01:15.567Z,15.44
2023-05-14T03:04:03.027Z,15.44
2023-05-14T03:06:49.889Z,15.44
2023-05-14T03:09:38.324Z,15.45
2023-05-14T03:12:25.564Z,15.43
2023-05-14T03:15:12.405Z,15.42
2023-05-14T03:17:59.329Z,15.41
2023-05-14T03:20:46.225Z,15.40
2023-05-14T03:23:34.998Z,15.38
2023-05-14T03:26:22.004Z,15.34
2023-05-14T03:29:10.700Z,15.29
2023-05-14T03:31:57.568Z,15.27
2023-05-14T03:34:44.849Z,15.27
2023-05-14T03:37:31.672Z,15.27
2023-05-14T03:40:18.552Z,15.26
2023-05-14T03:43:05.418Z,15.24
2023-05-14T03:45:52.797Z,15.23
2023-05-14T03:48:39.791Z,15.22
2023-05-14T03:51:26.614Z,15.22
2023-05-14T03:54:13.388Z,15.21
2023-05-14T03:57:00.242Z,15.20
2023-05-14T03:59:47.029Z,15.19
2023-05-14T04:02:33.925Z,15.18
2023-05-14T04:05:20.845Z,15.17
2023-05-14T04:08:07.637Z,15.17
2023-05-14T04:10:54.609Z,15.19
2023-05-14T04:13:41.414Z,15.21
2023-05-14T04:16:28.431Z,15.23
2023-05-14T04:19:15.853Z,15.22
2023-05-14T04:22:02.745Z,15.24
2023-05-14T04:24:49.578Z,15.25
2023-05-14T04:27:36.393Z,15.25
2023-05-14T04:30:23.368Z,15.25
2023-05-14T04:33:10.380Z,15.24
2023-05-14T04:35:57.269Z,15.24
2023-05-14T04:38:46.564Z,15.23
2023-05-14T04:41:33.357Z,15.22
2023-05-14T04:44:20.150Z,15.20
2023-05-14T04:47:07.733Z,15.20
2023-05-14T04:49:54.566Z,15.20
2023-05-14T04:52:41.644Z,15.20
2023-05-14T04:55:28.593Z,15.20
2023-05-14T04:58:15.439Z,15.19
2023-05-14T05:01:05.018Z,15.19
2023-05-14T05:03:52.410Z,15.19
2023-05-14T05:06:39.313Z,15.20
2023-05-14T05:09:26.107Z,15.19
2023-05-14T05:12:13.083Z,15.20
2023-05-14T05:14:59.889Z,15.22
2023-05-14T05:17:46.962Z,15.24
2023-05-14T05:20:33.947Z,15.24
2023-05-14T05:23:20.787Z,15.26
2023-05-14T05:26:07.715Z,15.27
2023-05-14T05:28:54.510Z,15.29
2023-05-14T05:31:41.922Z,15.31
2023-05-14T05:34:28.850Z,15.30
2023-05-14T05:37:15.671Z,15.32
2023-05-14T05:40:02.563Z,15.33
2023-05-14T05:42:49.426Z,15.33
2023-05-14T05:45:36.251Z,15.33
2023-05-14T05:48:23.045Z,15.33
2023-05-14T05:51:09.843Z,15.35
2023-05-14T05:53:56.667Z,15.35
2023-05-14T05:56:43.566Z,15.35
2023-05-14T05:59:30.654Z,15.36
2023-05-14T06:02:17.598Z,15.35
2023-05-14T06:05:04.879Z,15.38
2023-05-14T06:07:53.429Z,15.40
2023-05-14T06:10:40.319Z,15.43
2023-05-14T06:13:27.174Z,15.45
2023-05-14T06:16:14.055Z,15.46
2023-05-14T06:19:01.428Z,15.46
2023-05-14T06:21:48.596Z,15.47
2023-05-14T06:24:35.463Z,15.48
2023-05-14T06:27:22.371Z,15.50
2023-05-14T06:30:11.133Z,15.51
2023-05-14T06:32:58.021Z,15.53
2023-05-14T06:35:45.952Z,15.56
2023-05-14T06:38:32.818Z,15.59
2023-05-14T06:41:19.623Z,15.63
2023-05-14T06:44:06.523Z,15.69
2023-05-14T06:46:53.321Z,15.71
2023-05-14T06:49:40.243Z,15.76
2023-05-14T06:52:27.048Z,15.79
2023-05-14T06:55:13.901Z,15.84
2023-05-14T06:58:00.695Z,15.88
2023-05-14T07:00:48.170Z,15.92
2023-05-14T07:03:35.033Z,15.99
2023-05-14T07:06:22.482Z,16.03
2023-05-14T07:09:10.639Z,16.09
2023-05-14T07:11:57.412Z,16.15
2023-05-14T07:14:44.241Z,16.18
2023-05-14T07:17:31.151Z,16.22
2023-05-14T07:20:17.992Z,16.23
2023-05-14T07:23:04.789Z,16.24
2023-05-14T07:25:51.583Z,16.24
2023-05-14T07:28:38.385Z,16.26
2023-05-14T07:31:25.364Z,16.27
2023-05-14T07:34:12.773Z,16.28
2023-05-14T07:36:59.858Z,16.28
2023-05-14T07:39:46.798Z,16.28
2023-05-14T07:42:37.075Z,16.29
2023-05-14T07:45:24.376Z,16.30
2023-05-14T07:48:13.575Z,16.30
2023-05-14T07:51:03.424Z,16.30
2023-05-14T07:53:50.186Z,16.32
2023-05-14T07:56:37.077Z,16.36
2023-05-14T07:59:26.910Z,16.40
2023-05-14T08:02:15.879Z,16.42
2023-05-14T08:05:02.933Z,16.44
2023-05-14T08:07:49.944Z,16.47
2023-05-14T08:10:36.926Z,16.52
2023-05-14T08:13:23.783Z,16.57
2023-05-14T08:16:10.650Z,16.61
2023-05-14T08:18:57.503Z,16.67
2023-05-14T08:21:44.561Z,16.72
2023-05-14T08:24:31.699Z,16.77
2023-05-14T08:27:18.554Z,16.81
2023-05-14T08:30:06.797Z,16.88
2023-05-14T08:32:53.799Z,16.94
2023-05-14T08:35:40.692Z,16.99
2023-05-14T08:38:27.540Z,17.06
2023-05-14T08:41:16.254Z,17.14
2023-05-14T08:44:07.347Z,17.22
2023-05-14T08:46:54.713Z,17.27
2023-05-14T08:49:42.884Z,17.35
2023-05-14T08:52:30.446Z,17.43
2023-05-14T08:55:17.249Z,17.51
2023-05-14T08:58:04.248Z,17.58
2023-05-14T09:00:51.117Z,17.67
2023-05-14T09:03:38.212Z,17.70
2023-05-14T09:06:25.667Z,17.76
2023-05-14T09:09:13.073Z,17.79
2023-05-14T09:12:01.247Z,17.83
2023-05-14T09:14:49.176Z,17.86
2023-05-14T09:17:36.146Z,17.88
2023-05-14T09:20:23.597Z,17.89
2023-05-14T09:23:10.602Z,17.91
2023-05-14T09:25:57.475Z,17.92
2023-05-14T09:28:44.802Z,17.92
2023-05-14T09:31:33.127Z,17.91
2023-05-14T09:34:30.772Z,17.91
2023-05-14T09:37:17.539Z,17.89
2023-05-14T09:40:09.123Z,17.89
2023-05-14T09:42:56.194Z,17.88
2023-05-14T09:45:43.081Z,17.89
2023-05-14T09:48:30.027Z,17.92
2023-05-14T09:51:21.000Z,17.94
2023-05-14T09:54:08.217Z,17.97
2023-05-14T09:56:55.814Z,17.99
2023-05-14T09:59:42.788Z,17.99
2023-05-14T10:02:38.854Z,18.02
2023-05-14T10:05:26.856Z,18.06
2023-05-14T10:08:18.587Z,18.09
2023-05-14T10:11:11.010Z,18.14
2023-05-14T10:14:00.584Z,18.17
2023-05-14T10:16:50.043Z,18.20
2023-05-14T10:19:37.434Z,18.25
2023-05-14T10:22:27.843Z,18.28
2023-05-14T10:25:14.800Z,18.32
2023-05-14T10:28:02.511Z,18.37
2023-05-14T10:30:50.372Z,18.40
2023-05-14T10:33:50.522Z,18.42
2023-05-14T10:36:38.735Z,18.43
2023-05-14T10:39:40.548Z,18.47
2023-05-14T10:42:35.906Z,18.54
2023-05-14T10:45:22.908Z,18.58
2023-05-14T10:48:09.769Z,18.64
2023-05-14T10:50:57.196Z,18.68
2023-05-14T10:53:44.139Z,18.72
2023-05-14T10:56:30.936Z,18.75
2023-05-14T10:59:17.965Z,18.79
2023-05-14T11:02:34.996Z,18.83
2023-05-14T11:05:21.906Z,18.85
2023-05-14T11:08:08.821Z,18.87
2023-05-14T11:10:56.209Z,18.92
2023-05-14T11:13:43.020Z,18.97
2023-05-14T11:16:30.987Z,19.03
2023-05-14T11:19:21.674Z,19.07
2023-05-14T11:22:08.565Z,19.10
2023-05-14T11:24:55.523Z,19.13
2023-05-14T11:27:44.657Z,19.16
2023-05-14T11:30:31.526Z,19.19
2023-05-14T11:33:18.962Z,19.21
2023-05-14T11:36:06.088Z,19.24
2023-05-14T11:38:52.962Z,19.27
2023-05-14T11:41:45.652Z,19.29
2023-05-14T11:44:32.808Z,19.30
2023-05-14T11:47:21.374Z,19.34
2023-05-14T11:50:09.527Z,19.37
2023-05-14T11:52:57.454Z,19.38
2023-05-14T11:55:46.350Z,19.44
2023-05-14T11:58:33.853Z,19.48
2023-05-14T12:01:20.757Z,19.52
2023-05-14T12:04:07.795Z,19.56
2023-05-14T12:06:54.999Z,19.58
2023-05-14T12:09:48.984Z,19.58
2023-05-14T12:12:39.223Z,19.61
2023-05-14T12:15:26.821Z,19.63
2023-05-14T12:18:22.974Z,19.66
2023-05-14T12:21:12.014Z,19.68
2023-05-14T12:24:02.021Z,19.70
2023-05-14T12:26:50.065Z,19.70
2023-05-14T12:29:38.863Z,19.74
2023-05-14T12:32:26.411Z,19.75
2023-05-14T12:35:13.312Z,19.76
2023-05-14T12:38:00.506Z,19.78
2023-05-14T12:40:47.672Z,19.79
2023-05-14T12:43:34.468Z,19.80
2023-05-14T12:46:21.557Z,19.80
2023-05-14T12:49:08.444Z,19.80
2023-05-14T12:52:07.930Z,19.80
2023-05-14T12:55:02.137Z,19.77
2023-05-14T12:57:49.025Z,19.79
2023-05-14T13:00:35.892Z,19.82
2023-05-14T13:03:22.949Z,19.83
2023-05-14T13:06:09.824Z,19.85
2023-05-14T13:08:56.850Z,19.85
2023-05-14T13:11:43.627Z,19.84
2023-05-14T13:14:30.437Z,19.85
2023-05-14T13:17:17.275Z,19.83
2023-05-14T13:20:04.816Z,19.84
2023-05-14T13:22:51.647Z,19.85
2023-05-14T13:25:38.490Z,19.85
2023-05-14T13:28:25.376Z,19.88
2023-05-14T13:31:14.339Z,19.87
2023-05-14T13:34:02.500Z,19.88
2023-05-14T13:36:49.850Z,19.89
2023-05-14T13:39:36.653Z,19.91
2023-05-14T13:42:23.743Z,19.91
2023-05-14T13:45:11.759Z,19.93
2023-05-14T13:47:58.612Z,19.93
2023-05-14T13:50:45.495Z,19.92
2023-05-14T13:53:32.303Z,19.88
2023-05-14T13:56:19.458Z,19.86
2023-05-14T13:59:06.378Z,19.81
2023-05-14T14:01:53.261Z,19.75
2023-05-14T14:04:40.145Z,19.49
2023-05-14T14:07:27.036Z,19.17
2023-05-14T14:10:14.015Z,19.09
2023-05-14T14:13:00.941Z,19.07
2023-05-14T14:15:47.798Z,18.99
2023-05-14T14:18:34.687Z,19.01
2023-05-14T14:21:21.757Z,18.91
2023-05-14T14:24:08.594Z,18.69
2023-05-14T14:26:55.498Z,18.67
2023-05-14T14:29:42.444Z,18.63
2023-05-14T14:32:29.371Z,18.60
2023-05-14T14:35:19.933Z,18.55
2023-05-14T14:38:06.816Z,18.59
2023-05-14T14:40:54.237Z,18.79
2023-05-14T14:43:41.343Z,18.99
2023-05-14T14:46:28.499Z,19.17
2023-05-14T14:49:15.559Z,19.32
2023-05-14T14:52:02.490Z,19.43
2023-05-14T14:54:49.323Z,19.53
2023-05-14T14:57:36.181Z,19.61
2023-05-14T15:00:23.013Z,19.68
2023-05-14T15:03:13.261Z,19.73
2023-05-14T15:06:00.477Z,19.79
2023-05-14T15:08:47.385Z,19.81
2023-05-14T15:11:37.186Z,19.83
2023-05-14T15:14:24.355Z,19.85
2023-05-14T15:17:11.769Z,19.85
2023-05-14T15:19:59.020Z,19.86
2023-05-14T15:22:46.032Z,19.85
2023-05-14T15:25:32.941Z,19.84
2023-05-14T15:28:19.726Z,19.84
2023-05-14T15:31:06.643Z,19.83
2023-05-14T15:33:56.163Z,19.84
2023-05-14T15:36:43.055Z,19.83
2023-05-14T15:39:31.622Z,19.82
2023-05-14T15:42:19.976Z,19.81
2023-05-14T15:45:07.187Z,19.80
2023-05-14T15:47:54.304Z,19.79
2023-05-14T15:50:41.868Z,19.78
2023-05-14T15:53:28.814Z,19.77
2023-05-14T15:56:16.072Z,19.76
2023-05-14T15:59:03.510Z,19.75
2023-05-14T16:01:51.022Z,19.74
2023-05-14T16:04:38.124Z,19.74
2023-05-14T16:07:24.999Z,19.73
2023-05-14T16:10:11.872Z,19.71
2023-05-14T16:12:58.808Z,19.71
2023-05-14T16:15:46.178Z,19.71
2023-05-14T16:18:34.200Z,19.71
2023-05-14T16:21:21.387Z,19.70
2023-05-14T16:24:08.218Z,19.70
2023-05-14T16:26:55.077Z,19.70
2023-05-14T16:29:42.479Z,19.70
2023-05-14T16:32:29.824Z,19.71
2023-05-14T16:35:19.551Z,19.70
2023-05-14T16:38:06.847Z,19.71
2023-05-14T16:40:54.324Z,19.73
2023-05-14T16:43:41.295Z,19.73
2023-05-14T16:46:29.494Z,19.73
2023-05-14T16:49:16.961Z,19.73
2023-05-14T16:52:04.031Z,19.74
2023-05-14T16:54:50.917Z,19.75
2023-05-14T17:00:11.843Z,19.75
2023-05-14T17:02:58.674Z,19.76
2023-05-14T17:05:45.638Z,19.76
2023-05-14T17:08:33.632Z,19.76
2023-05-14T17:11:21.305Z,19.77
2023-05-14T17:14:08.144Z,19.76
2023-05-14T17:16:55.043Z,19.78
2023-05-14T17:19:42.411Z,19.78
2023-05-14T17:22:29.324Z,19.78
2023-05-14T17:25:16.139Z,19.78
2023-05-14T17:28:03.036Z,19.78
2023-05-14T17:30:51.064Z,19.78
2023-05-14T17:33:37.971Z,19.77
2023-05-14T17:36:25.092Z,19.77
2023-05-14T17:39:11.950Z,19.77
2023-05-14T17:41:58.757Z,19.75
2023-05-14T17:44:45.636Z,19.73
2023-05-14T17:47:32.511Z,19.71
2023-05-14T17:50:20.465Z,19.69
2023-05-14T17:53:07.329Z,19.69
2023-05-14T17:55:54.233Z,19.67
2023-05-14T17:58:41.307Z,19.67
2023-05-14T18:01:28.246Z,19.66
2023-05-14T18:04:15.467Z,19.65
2023-05-14T18:07:03.279Z,19.64
2023-05-14T18:09:50.193Z,19.62
2023-05-14T18:12:37.044Z,19.60
2023-05-14T18:15:25.665Z,19.57
2023-05-14T18:18:13.172Z,19.55
2023-05-14T18:21:00.031Z,19.49
2023-05-14T18:23:46.951Z,19.50
2023-05-14T18:26:34.489Z,19.47
2023-05-14T18:29:21.493Z,19.44
2023-05-14T18:32:09.767Z,19.41
2023-05-14T18:34:56.571Z,19.39
2023-05-14T18:37:43.572Z,19.36
2023-05-14T18:40:30.508Z,19.35
2023-05-14T18:43:18.490Z,19.34
2023-05-14T18:46:05.478Z,19.30
2023-05-14T18:48:52.374Z,19.27
2023-05-14T18:51:39.179Z,19.22
2023-05-14T18:54:26.072Z,19.19
2023-05-14T18:57:13.597Z,19.15
2023-05-14T19:00:01.993Z,19.10
2023-05-14T19:02:49.028Z,19.07
2023-05-14T19:05:35.939Z,19.05
2023-05-14T19:08:22.923Z,19.03
2023-05-14T19:11:09.782Z,19.03
2023-05-14T19:13:56.565Z,19.00
2023-05-14T19:16:43.414Z,18.99
2023-05-14T19:19:30.696Z,18.95
2023-05-14T19:22:17.518Z,18.90
2023-05-14T19:25:05.214Z,18.89
2023-05-14T19:27:55.307Z,18.84
2023-05-14T19:30:42.140Z,18.81
2023-05-14T19:33:29.010Z,18.79
2023-05-14T19:36:15.976Z,18.76
2023-05-14T19:39:03.130Z,18.72
2023-05-14T19:41:49.973Z,18.66
2023-05-14T19:44:36.870Z,18.62
2023-05-14T19:47:23.710Z,18.59
2023-05-14T19:50:11.251Z,18.57
2023-05-14T19:52:58.132Z,18.52
2023-05-14T19:55:45.015Z,18.50
2023-05-14T19:58:31.983Z,18.49
2023-05-14T20:01:19.320Z,18.49
2023-05-14T20:04:07.307Z,18.48
2023-05-14T20:06:57.259Z,18.45
2023-05-14T20:09:44.338Z,18.43
2023-05-14T20:12:31.471Z,18.39
2023-05-14T20:15:18.346Z,18.36
2023-05-14T20:18:05.260Z,18.35
2023-05-14T20:20:52.099Z,18.34
2023-05-14T20:23:38.941Z,18.32
2023-05-14T20:26:25.862Z,18.29
2023-05-14T20:29:14.370Z,18.26
2023-05-14T20:32:01.186Z,18.23
2023-05-14T20:34:47.972Z,18.21
2023-05-14T20:37:34.769Z,18.20
2023-05-14T20:40:21.709Z,18.19
2023-05-14T20:43:08.561Z,18.18
2023-05-14T20:45:57.221Z,18.14
2023-05-14T20:48:44.072Z,18.10
2023-05-14T20:51:30.926Z,18.09
2023-05-14T20:54:17.728Z,18.07
2023-05-14T20:57:04.638Z,18.06
2023-05-14T20:59:51.554Z,18.06
2023-05-14T21:02:38.520Z,18.04
2023-05-14T21:05:25.767Z,18.03
2023-05-14T21:08:12.766Z,18.02
2023-05-14T21:10:59.613Z,17.99
2023-05-14T21:13:46.448Z,17.97
2023-05-14T21:16:33.394Z,17.91
2023-05-14T21:19:20.474Z,17.88
2023-05-14T21:22:07.402Z,17.85
2023-05-14T21:24:55.591Z,17.81
2023-05-14T21:27:45.296Z,17.76
2023-05-14T21:30:32.223Z,17.73
2023-05-14T21:33:19.198Z,17.69
2023-05-14T21:36:07.235Z,17.65
2023-05-14T21:38:54.014Z,17.65
2023-05-14T21:41:41.340Z,17.64
2023-05-14T21:44:28.139Z,17.60
2023-05-14T21:47:16.147Z,17.58
2023-05-14T21:50:03.751Z,17.57
2023-05-14T21:52:50.613Z,17.58
2023-05-14T21:55:37.494Z,17.57
2023-05-14T21:58:24.312Z,17.55
2023-05-14T22:01:11.620Z,17.53
2023-05-14T22:03:58.618Z,17.50
2023-05-14T22:06:45.530Z,17.48
2023-05-14T22:09:32.481Z,17.45
2023-05-14T22:12:19.287Z,17.43
2023-05-14T22:15:06.749Z,17.43
2023-05-14T22:17:53.580Z,17.44
2023-05-14T22:20:40.538Z,17.41
2023-05-14T22:23:57.778Z,17.35
2023-05-14T22:26:44.670Z,17.37
2023-05-14T22:29:31.636Z,17.36
2023-05-14T22:32:18.579Z,17.33
2023-05-14T22:35:05.512Z,17.30
2023-05-14T22:37:52.341Z,17.29
2023-05-14T22:40:39.156Z,17.28
2023-05-14T22:43:25.968Z,17.28
2023-05-14T22:46:12.857Z,17.29
2023-05-14T22:49:00.170Z,17.28
2023-05-14T22:51:47.115Z,17.20
2023-05-14T22:54:33.924Z,17.15
2023-05-14T22:57:20.750Z,17.08
2023-05-14T23:00:08.992Z,16.99
2023-05-14T23:02:55.916Z,16.92
2023-05-14T23:05:42.800Z,16.84
2023-05-14T23:08:29.722Z,16.76
2023-05-14T23:11:16.546Z,16.80
2023-05-14T23:14:03.397Z,16.84
2023-05-14T23:16:50.217Z,16.88
2023-05-14T23:19:37.037Z,16.91
2023-05-14T23:22:23.878Z,16.92
2023-05-14T23:25:10.720Z,16.93
2023-05-14T23:27:57.500Z,16.92
2023-05-14T23:30:45.088Z,16.93
2023-05-14T23:33:31.978Z,16.91
2023-05-14T23:36:18.902Z,16.89
2023-05-14T23:39:05.860Z,16.90
2023-05-14T23:41:52.731Z,16.88
2023-05-14T23:44:39.550Z,16.86
2023-05-14T23:47:26.427Z,16.85
2023-05-14T23:50:13.282Z,16.84
2023-05-14T23:53:00.165Z,16.81
2023-05-14T23:55:47.148Z,16.77
2023-05-14T23:58:34.270Z,16.76
